Time;durP1;ratioP1;P1;durP2;ratioP2;P2;SDS_P1;SDS_P2;PMS_P1;PMS_P2;Temp;Humidity;BMP_temperature;BMP_pressure;BME280_temperature;BME280_humidity;BME280_pressure;Samples;Min_cycle;Max_cycle;Signal;HPM_P1;HPM_P2
2023/11/18 00:00:27;;;;;;;5.15;3.63;;;3.90;99.90;;;;;;5033031;28;20503;-80
2023/11/18 00:02:52;;;;;;;5.80;3.70;;;3.90;99.90;;;;;;5013907;28;20017;-79
2023/11/18 00:05:18;;;;;;;4.82;3.70;;;3.90;99.90;;;;;;5017725;28;20402;-80
2023/11/18 00:07:43;;;;;;;6.63;3.70;;;3.90;99.90;;;;;;5035245;28;20091;-81
2023/11/18 00:10:09;;;;;;;4.57;3.60;;;3.90;99.90;;;;;;5033223;28;20030;-80
2023/11/18 00:12:36;;;;;;;4.20;3.13;;;3.80;99.90;;;;;;5035233;28;20039;-80
2023/11/18 00:15:04;;;;;;;4.82;3.70;;;3.80;99.90;;;;;;5034465;28;20033;-79
2023/11/18 00:17:30;;;;;;;4.30;3.20;;;3.80;99.90;;;;;;5017324;28;20045;-81
2023/11/18 00:19:56;;;;;;;4.40;3.28;;;3.80;99.90;;;;;;5016770;28;20021;-79
2023/11/18 00:22:21;;;;;;;3.97;3.08;;;3.80;99.90;;;;;;5017987;28;20620;-79
2023/11/18 00:24:47;;;;;;;4.15;3.47;;;3.80;99.90;;;;;;5015845;28;20639;-80
2023/11/18 00:27:14;;;;;;;5.20;3.42;;;3.80;99.90;;;;;;5035494;28;20025;-79
2023/11/18 00:29:41;;;;;;;4.70;3.83;;;3.80;99.90;;;;;;5017842;28;20033;-79
2023/11/18 00:32:07;;;;;;;4.75;3.38;;;3.80;99.90;;;;;;5012073;28;20022;-80
2023/11/18 00:34:35;;;;;;;5.88;3.20;;;3.80;99.90;;;;;;5016048;28;20047;-79
2023/11/18 00:37:01;;;;;;;5.72;3.58;;;3.80;99.90;;;;;;5033170;28;20029;-79
2023/11/18 00:39:29;;;;;;;3.40;2.90;;;3.80;99.90;;;;;;5013848;28;20041;-80
2023/11/18 00:41:55;;;;;;;3.92;2.95;;;3.80;99.90;;;;;;5033117;28;20090;-79
2023/11/18 00:44:21;;;;;;;3.47;2.67;;;3.90;99.90;;;;;;5027575;28;20186;-80
2023/11/18 00:46:47;;;;;;;4.15;3.35;;;3.90;99.90;;;;;;5013772;28;20125;-80
2023/11/18 00:49:12;;;;;;;3.75;3.20;;;3.80;99.90;;;;;;5033261;28;20033;-80
2023/11/18 00:51:38;;;;;;;4.65;2.78;;;3.90;99.90;;;;;;5016701;28;20054;-80
2023/11/18 00:54:06;;;;;;;6.28;3.25;;;3.90;99.90;;;;;;5032608;28;20391;-79
2023/11/18 00:56:32;;;;;;;4.10;3.20;;;3.90;99.90;;;;;;5017311;28;20512;-80
2023/11/18 00:58:58;;;;;;;4.60;2.60;;;3.90;99.90;;;;;;5021497;28;20029;-81
2023/11/18 01:01:23;;;;;;;3.95;3.17;;;3.90;99.90;;;;;;5021422;28;20030;-80
2023/11/18 01:03:49;;;;;;;5.10;3.17;;;3.90;99.90;;;;;;5036653;28;20089;-82
2023/11/18 01:06:15;;;;;;;5.55;3.20;;;3.90;99.90;;;;;;5023332;28;20030;-80
2023/11/18 01:08:43;;;;;;;4.63;3.15;;;3.90;99.90;;;;;;5033274;28;20457;-81
2023/11/18 01:11:09;;;;;;;3.85;2.97;;;3.90;99.90;;;;;;5012546;28;20491;-83
2023/11/18 01:13:35;;;;;;;6.60;3.97;;;3.90;99.90;;;;;;5013019;28;20120;-80
2023/11/18 01:16:01;;;;;;;5.18;3.55;;;4.00;99.90;;;;;;5031840;28;20030;-79
2023/11/18 01:18:27;;;;;;;5.07;3.80;;;4.00;99.90;;;;;;5014247;28;20037;-81
2023/11/18 01:20:53;;;;;;;4.60;3.40;;;3.90;99.90;;;;;;5029667;28;20083;-81
2023/11/18 01:23:18;;;;;;;6.03;3.90;;;4.00;99.90;;;;;;5015437;28;20033;-79
2023/11/18 01:25:44;;;;;;;5.18;3.60;;;3.90;99.90;;;;;;5033105;28;20041;-79
2023/11/18 01:28:09;;;;;;;4.03;3.25;;;4.00;99.90;;;;;;5011427;28;20033;-79
2023/11/18 01:30:36;;;;;;;6.18;3.80;;;4.00;99.90;;;;;;5032302;28;20033;-80
2023/11/18 01:33:02;;;;;;;5.25;4.07;;;3.90;99.90;;;;;;5013172;28;20044;-79
2023/11/18 01:35:27;;;;;;;5.38;3.83;;;4.00;99.90;;;;;;5032059;28;20473;-80
2023/11/18 01:37:54;;;;;;;3.63;2.75;;;4.00;99.90;;;;;;5012157;28;20051;-80
2023/11/18 01:40:20;;;;;;;5.05;3.40;;;4.00;99.90;;;;;;5010759;28;20056;-79
2023/11/18 01:42:46;;;;;;;4.13;3.33;;;4.00;99.90;;;;;;5015313;28;20120;-79
2023/11/18 01:45:16;;;;;;;3.85;2.83;;;3.90;99.90;;;;;;5032284;28;20076;-81
2023/11/18 01:47:42;;;;;;;5.63;2.95;;;3.90;99.90;;;;;;5035265;28;20628;-80
2023/11/18 01:50:12;;;;;;;4.90;3.05;;;3.90;99.90;;;;;;5030551;28;20029;-80
2023/11/18 01:52:39;;;;;;;4.68;3.00;;;3.90;99.90;;;;;;5027803;28;20030;-80
2023/11/18 01:55:08;;;;;;;5.10;4.00;;;3.90;99.90;;;;;;5029487;28;20025;-79
2023/11/18 01:57:37;;;;;;;5.22;3.80;;;3.90;99.90;;;;;;5010068;28;20032;-79
2023/11/18 02:00:06;;;;;;;4.13;3.08;;;3.90;99.90;;;;;;5007081;28;20026;-79
2023/11/18 02:02:33;;;;;;;6.72;3.58;;;3.80;99.90;;;;;;5033519;28;20026;-82
2023/11/18 02:05:01;;;;;;;4.35;2.67;;;3.80;99.90;;;;;;5035924;28;20100;-80
2023/11/18 02:07:29;;;;;;;3.88;2.97;;;3.80;99.90;;;;;;5033284;28;20096;-80
2023/11/18 02:09:55;;;;;;;4.88;3.05;;;3.80;99.90;;;;;;5038059;28;20111;-83
2023/11/18 02:12:27;;;;;;;4.47;3.13;;;3.80;99.90;;;;;;5036671;28;20025;-82
2023/11/18 02:14:55;;;;;;;4.10;3.13;;;3.80;99.90;;;;;;5018225;28;20025;-80
2023/11/18 02:17:25;;;;;;;3.95;3.33;;;3.80;99.90;;;;;;5014019;28;20408;-81
2023/11/18 02:19:53;;;;;;;4.03;3.15;;;3.80;99.90;;;;;;5010129;28;20033;-80
2023/11/18 02:22:21;;;;;;;4.90;3.35;;;3.80;99.90;;;;;;5013847;28;20033;-81
2023/11/18 02:24:47;;;;;;;4.18;3.13;;;3.80;99.90;;;;;;5011556;28;20085;-80
2023/11/18 02:27:13;;;;;;;4.85;3.70;;;3.70;99.90;;;;;;5016192;28;20044;-80
2023/11/18 02:29:42;;;;;;;5.55;4.10;;;3.70;99.90;;;;;;5017153;28;20130;-80
2023/11/18 02:33:02;;;;;;;5.38;4.05;;;3.70;99.90;;;;;;5027354;28;20033;-80
2023/11/18 02:35:37;;;;;;;5.45;3.90;;;3.60;99.90;;;;;;4972003;28;20166;-81
2023/11/18 02:38:04;;;;;;;6.50;4.32;;;3.60;99.90;;;;;;4988005;28;20060;-80
2023/11/18 02:40:36;;;;;;;4.68;3.97;;;3.50;99.90;;;;;;4996344;28;20053;-80
2023/11/18 02:43:05;;;;;;;3.88;3.35;;;3.50;99.90;;;;;;5012351;28;20049;-78
2023/11/18 02:45:31;;;;;;;5.72;4.07;;;3.40;99.90;;;;;;5005983;28;20029;-80
2023/11/18 02:47:58;;;;;;;3.85;3.45;;;3.40;99.90;;;;;;4999665;28;20571;-79
2023/11/18 02:50:24;;;;;;;6.63;4.63;;;3.40;99.90;;;;;;5009203;28;21807;-79
2023/11/18 02:52:50;;;;;;;5.55;4.10;;;3.40;99.90;;;;;;5028542;28;20076;-79
2023/11/18 02:55:15;;;;;;;7.00;4.78;;;3.40;99.90;;;;;;5009547;28;20056;-79
2023/11/18 02:57:41;;;;;;;5.72;4.18;;;3.30;99.90;;;;;;5010300;28;20469;-79
2023/11/18 03:00:40;;;;;;;6.70;4.40;;;3.40;99.90;;;;;;5011827;28;20483;-79
2023/11/18 03:02:59;;;;;;;5.18;4.18;;;3.30;99.90;;;;;;5025620;28;20516;-79
2023/11/18 03:05:26;;;;;;;5.85;4.63;;;3.30;99.90;;;;;;5010858;28;20034;-82
2023/11/18 03:07:54;;;;;;;7.00;4.88;;;3.40;99.90;;;;;;5012343;28;20127;-78
2023/11/18 03:10:20;;;;;;;5.57;4.63;;;3.40;99.90;;;;;;5025151;28;20056;-79
2023/11/18 03:12:53;;;;;;;6.07;4.95;;;3.40;99.90;;;;;;5028588;28;20036;-81
2023/11/18 03:15:20;;;;;;;7.88;4.90;;;3.40;99.90;;;;;;5029366;28;20021;-81
2023/11/18 03:17:49;;;;;;;7.60;5.35;;;3.40;99.90;;;;;;5026982;28;20017;-79
2023/11/18 03:20:16;;;;;;;8.35;5.05;;;3.40;99.90;;;;;;5020293;28;20018;-81
2023/11/18 03:22:49;;;;;;;6.95;5.18;;;3.40;99.90;;;;;;5026291;28;20041;-80
2023/11/18 03:25:16;;;;;;;7.22;5.05;;;3.30;99.90;;;;;;5023818;28;20103;-79
2023/11/18 03:27:42;;;;;;;7.53;4.50;;;3.40;99.90;;;;;;5021319;28;20430;-80
2023/11/18 03:30:09;;;;;;;5.93;4.43;;;3.30;99.90;;;;;;5011257;28;20032;-79
2023/11/18 03:32:35;;;;;;;6.38;4.85;;;3.40;99.90;;;;;;5010606;28;20039;-79
2023/11/18 03:35:04;;;;;;;6.75;4.88;;;3.40;99.90;;;;;;5010371;28;20025;-80
2023/11/18 03:37:31;;;;;;;7.90;5.30;;;3.40;99.90;;;;;;5008970;28;20398;-82
2023/11/18 03:39:56;;;;;;;11.70;6.32;;;3.40;99.90;;;;;;5026163;28;20439;-79
2023/11/18 03:42:22;;;;;;;8.80;6.00;;;3.40;99.90;;;;;;5019299;28;20037;-81
2023/11/18 03:44:47;;;;;;;8.05;5.35;;;3.40;99.90;;;;;;5007622;28;20049;-80
2023/11/18 03:47:14;;;;;;;6.88;5.38;;;3.30;99.90;;;;;;5005769;28;20619;-80
2023/11/18 03:49:40;;;;;;;9.30;5.57;;;3.40;99.90;;;;;;5011044;28;20045;-79
2023/11/18 03:52:06;;;;;;;9.88;5.70;;;3.40;99.90;;;;;;5025319;28;20026;-80
2023/11/18 03:54:32;;;;;;;6.47;4.93;;;3.40;99.90;;;;;;5024501;28;20052;-79
2023/11/18 03:56:57;;;;;;;8.05;5.40;;;3.40;99.90;;;;;;5027801;28;20029;-80
2023/11/18 03:59:23;;;;;;;6.18;5.38;;;3.40;99.90;;;;;;5004829;28;20033;-80
2023/11/18 04:01:50;;;;;;;7.30;5.47;;;3.40;99.90;;;;;;5027538;28;20017;-79
2023/11/18 04:04:16;;;;;;;7.07;5.10;;;3.40;99.90;;;;;;5009852;28;20037;-79
2023/11/18 04:06:42;;;;;;;7.25;5.03;;;3.40;99.90;;;;;;5014262;28;20420;-79
2023/11/18 04:09:09;;;;;;;6.57;4.97;;;3.40;99.90;;;;;;5012816;28;20022;-80
2023/11/18 04:11:35;;;;;;;7.55;5.07;;;3.40;99.90;;;;;;5015443;28;20025;-80
2023/11/18 04:14:00;;;;;;;6.55;4.90;;;3.50;99.90;;;;;;5012481;28;20087;-79
2023/11/18 04:16:26;;;;;;;6.72;4.68;;;3.50;99.90;;;;;;5010242;28;20079;-81
2023/11/18 04:18:51;;;;;;;5.80;4.80;;;3.50;99.90;;;;;;5032042;28;20079;-79
2023/11/18 04:21:17;;;;;;;7.05;5.22;;;3.50;99.90;;;;;;5012864;28;20036;-82
2023/11/18 04:23:46;;;;;;;4.75;4.10;;;3.50;99.90;;;;;;5026686;28;20033;-81
2023/11/18 04:26:12;;;;;;;8.45;5.45;;;3.50;99.90;;;;;;5015988;28;20496;-80
2023/11/18 04:28:38;;;;;;;7.30;4.75;;;3.50;99.90;;;;;;5013521;28;20025;-83
2023/11/18 04:31:05;;;;;;;10.40;5.78;;;3.50;99.90;;;;;;5033728;28;20022;-81
2023/11/18 04:33:30;;;;;;;7.93;5.65;;;3.50;99.90;;;;;;5016225;28;20022;-80
2023/11/18 04:35:59;;;;;;;7.45;5.05;;;3.50;99.90;;;;;;5014277;28;20520;-80
2023/11/18 04:38:26;;;;;;;6.85;5.60;;;3.50;99.90;;;;;;5016940;28;20028;-79
2023/11/18 04:40:53;;;;;;;7.40;5.00;;;3.50;99.90;;;;;;5034748;28;20041;-79
2023/11/18 04:43:20;;;;;;;10.23;4.85;;;3.50;99.90;;;;;;5033817;28;20014;-79
2023/11/18 04:45:45;;;;;;;6.85;5.63;;;3.50;99.90;;;;;;5034393;28;20013;-80
2023/11/18 04:48:12;;;;;;;7.18;5.00;;;3.50;99.90;;;;;;5008595;28;20123;-79
2023/11/18 04:50:39;;;;;;;6.72;4.47;;;3.50;99.90;;;;;;5010157;28;20021;-80
2023/11/18 04:53:08;;;;;;;9.10;5.50;;;3.50;99.90;;;;;;5015512;28;20032;-80
2023/11/18 04:55:34;;;;;;;9.38;5.15;;;3.50;99.90;;;;;;5012254;28;20116;-80
2023/11/18 04:58:00;;;;;;;7.15;4.38;;;3.50;99.90;;;;;;5032367;28;20674;-79
2023/11/18 05:00:27;;;;;;;7.32;5.68;;;3.50;99.90;;;;;;5028120;28;20032;-80
2023/11/18 05:02:53;;;;;;;6.32;5.65;;;3.50;99.90;;;;;;5027242;28;20085;-78
2023/11/18 05:05:19;;;;;;;7.85;4.70;;;3.50;99.90;;;;;;5012133;28;20025;-79
2023/11/18 05:07:45;;;;;;;7.25;4.93;;;3.50;99.90;;;;;;5030228;28;20036;-79
2023/11/18 05:10:11;;;;;;;10.68;5.07;;;3.50;99.90;;;;;;5029631;28;20091;-80
2023/11/18 05:12:37;;;;;;;7.50;5.00;;;3.50;99.90;;;;;;5012241;28;20021;-79
2023/11/18 05:15:04;;;;;;;6.63;5.00;;;3.50;99.90;;;;;;5010606;28;20060;-79
2023/11/18 05:17:30;;;;;;;7.88;5.75;;;3.50;99.90;;;;;;5012417;28;20022;-80
2023/11/18 05:19:56;;;;;;;9.13;5.97;;;3.50;99.90;;;;;;5030959;28;20029;-82
2023/11/18 05:22:21;;;;;;;11.60;5.38;;;3.50;99.90;;;;;;5011793;28;20040;-79
2023/11/18 05:24:47;;;;;;;8.20;5.47;;;3.50;99.90;;;;;;5014842;28;20021;-80
2023/11/18 05:27:14;;;;;;;6.68;5.45;;;3.50;99.90;;;;;;5031236;28;20536;-80
2023/11/18 05:29:47;;;;;;;8.57;5.68;;;3.50;99.90;;;;;;5026623;28;20516;-80
2023/11/18 05:32:13;;;;;;;6.30;4.15;;;3.50;99.90;;;;;;5014348;28;20386;-80
2023/11/18 05:34:38;;;;;;;6.88;5.10;;;3.50;99.90;;;;;;5012546;28;20028;-79
2023/11/18 05:37:04;;;;;;;7.63;5.22;;;3.50;99.90;;;;;;5008934;28;20527;-82
2023/11/18 05:39:30;;;;;;;7.68;4.88;;;3.50;99.90;;;;;;5025354;28;20033;-82
2023/11/18 05:41:57;;;;;;;6.97;5.00;;;3.50;99.90;;;;;;5029222;28;20112;-82
2023/11/18 05:44:30;;;;;;;7.43;5.43;;;3.50;99.90;;;;;;5032657;28;20072;-82
2023/11/18 05:46:57;;;;;;;7.15;5.15;;;3.50;99.90;;;;;;5032464;28;20052;-82
2023/11/18 05:49:24;;;;;;;7.55;5.25;;;3.50;99.90;;;;;;5027181;28;20041;-79
2023/11/18 05:51:49;;;;;;;6.88;5.07;;;3.50;99.90;;;;;;5011188;28;20275;-82
2023/11/18 05:54:15;;;;;;;7.30;5.93;;;3.50;99.90;;;;;;5014346;28;20624;-81
2023/11/18 05:56:40;;;;;;;6.78;4.95;;;3.50;99.90;;;;;;5030321;28;20021;-80
2023/11/18 05:59:08;;;;;;;7.78;5.30;;;3.40;99.90;;;;;;5027969;28;20446;-79
2023/11/18 06:01:34;;;;;;;7.03;5.18;;;3.40;99.90;;;;;;5029687;28;20049;-83
2023/11/18 06:04:00;;;;;;;6.90;5.25;;;3.50;99.90;;;;;;5030907;28;20079;-81
2023/11/18 06:06:26;;;;;;;6.95;5.03;;;3.40;99.90;;;;;;5032136;28;20029;-80
2023/11/18 06:08:53;;;;;;;7.25;5.47;;;3.40;99.90;;;;;;5033129;28;20533;-79
2023/11/18 06:11:19;;;;;;;7.32;5.15;;;3.40;99.90;;;;;;5033590;28;20009;-79
2023/11/18 06:13:46;;;;;;;12.18;6.43;;;3.40;99.90;;;;;;5016320;28;20025;-80
2023/11/18 06:16:15;;;;;;;7.53;5.05;;;3.40;99.90;;;;;;5033375;28;20017;-79
2023/11/18 06:18:44;;;;;;;7.85;5.55;;;3.40;99.90;;;;;;5014914;28;20025;-80
2023/11/18 06:21:14;;;;;;;7.60;5.60;;;3.40;99.90;;;;;;5014735;28;20108;-81
2023/11/18 06:23:41;;;;;;;7.32;5.15;;;3.40;99.90;;;;;;5012084;28;20033;-80
2023/11/18 06:26:07;;;;;;;6.28;4.80;;;3.40;99.90;;;;;;5014327;28;20160;-79
2023/11/18 06:28:33;;;;;;;9.30;6.30;;;3.40;99.90;;;;;;5016283;28;20060;-80
2023/11/18 06:31:00;;;;;;;8.35;4.97;;;3.40;99.90;;;;;;5034595;28;20083;-80
2023/11/18 06:33:27;;;;;;;7.25;5.47;;;3.40;99.90;;;;;;5035925;28;20025;-78
2023/11/18 06:35:56;;;;;;;8.15;6.13;;;3.40;99.90;;;;;;5019442;28;20064;-81
2023/11/18 06:38:22;;;;;;;9.13;6.07;;;3.30;99.90;;;;;;5026120;28;20029;-79
2023/11/18 06:40:52;;;;;;;9.52;6.00;;;3.40;99.90;;;;;;5032586;28;20051;-79
2023/11/18 06:43:18;;;;;;;9.45;6.07;;;3.40;99.90;;;;;;5030686;28;20032;-81
2023/11/18 06:45:44;;;;;;;7.60;5.57;;;3.40;99.90;;;;;;5034592;28;20112;-81
2023/11/18 06:48:09;;;;;;;9.65;6.05;;;3.30;99.90;;;;;;5017108;28;20072;-79
2023/11/18 06:50:35;;;;;;;8.32;6.57;;;3.30;99.90;;;;;;5030466;28;20049;-79
2023/11/18 06:53:01;;;;;;;8.10;5.80;;;3.30;99.90;;;;;;5012455;28;20025;-80
2023/11/18 06:55:26;;;;;;;9.48;6.05;;;3.40;99.90;;;;;;5012059;28;20022;-81
2023/11/18 06:57:54;;;;;;;6.95;5.35;;;3.40;99.90;;;;;;5014098;28;20072;-82
2023/11/18 07:00:21;;;;;;;8.10;5.20;;;3.40;99.90;;;;;;5031265;28;20206;-80
2023/11/18 07:02:47;;;;;;;9.18;5.95;;;3.40;99.90;;;;;;5014136;28;20026;-81
2023/11/18 07:05:14;;;;;;;7.68;5.53;;;3.40;99.90;;;;;;5034741;28;20494;-79
2023/11/18 07:07:40;;;;;;;10.32;6.57;;;3.40;99.90;;;;;;5016208;28;20084;-80
2023/11/18 07:10:07;;;;;;;7.57;5.95;;;3.40;99.90;;;;;;5012689;28;20030;-80
2023/11/18 07:12:38;;;;;;;7.68;5.38;;;3.40;99.90;;;;;;5013046;28;20037;-81
2023/11/18 07:15:04;;;;;;;8.32;5.43;;;3.40;99.90;;;;;;5016315;28;20025;-80
2023/11/18 07:17:30;;;;;;;8.25;5.60;;;3.40;99.90;;;;;;5009858;28;20053;-80
2023/11/18 07:19:55;;;;;;;8.90;5.88;;;3.40;99.90;;;;;;5013802;28;20540;-81
2023/11/18 07:22:21;;;;;;;7.40;5.82;;;3.40;99.90;;;;;;5026958;28;20095;-80
2023/11/18 07:24:46;;;;;;;7.93;5.00;;;3.40;99.90;;;;;;5015967;28;20022;-80
2023/11/18 07:27:13;;;;;;;10.60;6.40;;;3.40;99.90;;;;;;5031823;28;20477;-81
2023/11/18 07:29:38;;;;;;;9.25;5.82;;;3.40;99.90;;;;;;5015164;28;20032;-81
2023/11/18 07:32:05;;;;;;;9.70;6.35;;;3.40;99.90;;;;;;5031196;28;20080;-80
2023/11/18 07:34:32;;;;;;;10.02;6.63;;;3.50;99.90;;;;;;5035100;28;20680;-80
2023/11/18 07:36:58;;;;;;;10.13;5.63;;;3.50;99.90;;;;;;5020176;28;20091;-79
2023/11/18 07:39:24;;;;;;;9.38;6.70;;;3.50;99.90;;;;;;5032668;28;20137;-81
2023/11/18 07:41:50;;;;;;;12.25;6.03;;;3.50;99.90;;;;;;5017005;28;20497;-80
2023/11/18 07:44:16;;;;;;;13.30;7.13;;;3.40;99.90;;;;;;5018064;28;20029;-81
2023/11/18 07:46:42;;;;;;;8.68;5.80;;;3.50;99.90;;;;;;5038108;28;20029;-83
2023/11/18 07:49:08;;;;;;;10.60;7.70;;;3.50;99.90;;;;;;5016709;28;20075;-80
2023/11/18 07:51:34;;;;;;;8.75;7.28;;;3.50;99.90;;;;;;5026799;28;20036;-79
2023/11/18 07:54:00;;;;;;;13.50;8.60;;;3.60;99.90;;;;;;5019115;28;20223;-79
2023/11/18 07:56:26;;;;;;;12.05;8.23;;;3.60;99.90;;;;;;5018724;28;20013;-81
2023/11/18 07:58:54;;;;;;;10.77;7.22;;;3.60;99.90;;;;;;5033411;28;20029;-79
2023/11/18 08:01:21;;;;;;;8.80;6.30;;;3.60;99.90;;;;;;5031969;28;20112;-83
2023/11/18 08:03:47;;;;;;;11.55;7.35;;;3.60;99.90;;;;;;5016941;28;20441;-80
2023/11/18 08:06:13;;;;;;;9.82;6.78;;;3.60;99.90;;;;;;5036215;28;20056;-80
2023/11/18 08:08:38;;;;;;;10.45;6.93;;;3.70;99.90;;;;;;5018209;28;20026;-79
2023/11/18 08:11:05;;;;;;;10.43;7.30;;;3.70;99.90;;;;;;5015787;28;20417;-80
2023/11/18 08:13:31;;;;;;;9.20;7.03;;;3.70;99.90;;;;;;5014747;28;20025;-80
2023/11/18 08:15:57;;;;;;;10.65;7.07;;;3.80;99.90;;;;;;5037078;28;20085;-81
2023/11/18 08:18:24;;;;;;;9.95;7.93;;;3.80;99.90;;;;;;5019855;28;20112;-80
2023/11/18 08:20:50;;;;;;;11.77;7.55;;;3.80;99.90;;;;;;5017415;28;20477;-80
2023/11/18 08:23:15;;;;;;;11.48;7.40;;;3.90;99.90;;;;;;5036734;28;20022;-81
2023/11/18 08:25:41;;;;;;;11.43;7.57;;;3.90;99.90;;;;;;5018030;28;20025;-80
2023/11/18 08:28:08;;;;;;;11.45;7.88;;;4.00;99.90;;;;;;5034633;28;20018;-81
2023/11/18 08:30:34;;;;;;;10.13;7.53;;;4.00;99.90;;;;;;5029805;28;20029;-79
2023/11/18 08:33:00;;;;;;;11.48;7.03;;;4.10;99.90;;;;;;5011192;28;20036;-80
2023/11/18 08:35:26;;;;;;;15.23;8.27;;;4.10;99.90;;;;;;5014355;28;20029;-81
2023/11/18 08:37:52;;;;;;;13.77;7.95;;;4.10;99.90;;;;;;5025475;28;20169;-79
2023/11/18 08:40:20;;;;;;;11.63;7.65;;;4.10;99.90;;;;;;5015211;28;20030;-79
2023/11/18 08:42:49;;;;;;;10.45;7.55;;;4.10;99.90;;;;;;5014800;28;20060;-79
2023/11/18 08:45:37;;;;;;;11.90;7.43;;;4.10;99.90;;;;;;5011861;28;20042;-79
2023/11/18 08:48:07;;;;;;;10.35;7.05;;;4.10;99.90;;;;;;5014920;28;20033;-79
2023/11/18 08:50:34;;;;;;;11.65;8.23;;;4.10;99.90;;;;;;5012210;28;20075;-79
2023/11/18 08:52:59;;;;;;;11.52;7.88;;;4.20;99.90;;;;;;5012394;28;20030;-79
2023/11/18 08:55:38;;;;;;;10.52;7.85;;;4.30;99.90;;;;;;5014851;28;20109;-79
2023/11/18 08:58:27;;;;;;;11.73;8.20;;;4.30;99.90;;;;;;5012525;28;20339;-79
2023/11/18 09:00:54;;;;;;;10.00;7.38;;;4.40;99.90;;;;;;5015464;28;20397;-81
2023/11/18 09:03:24;;;;;;;11.60;8.20;;;4.50;99.90;;;;;;5017369;28;20040;-79
2023/11/18 09:06:03;;;;;;;12.65;7.50;;;4.60;99.90;;;;;;5014871;28;20031;-79
2023/11/18 09:08:32;;;;;;;11.10;8.10;;;4.60;99.90;;;;;;5034325;28;20393;-82
2023/11/18 09:10:58;;;;;;;10.43;7.45;;;4.70;99.90;;;;;;5015812;28;20040;-81
2023/11/18 09:13:31;;;;;;;13.13;6.82;;;4.80;99.90;;;;;;5033376;28;20033;-79
2023/11/18 09:16:02;;;;;;;9.07;6.55;;;4.80;99.90;;;;;;5015368;28;20455;-79
2023/11/18 09:18:30;;;;;;;9.05;6.57;;;4.80;99.90;;;;;;5012566;28;20519;-79
2023/11/18 09:20:58;;;;;;;9.27;6.90;;;4.80;99.90;;;;;;5011828;28;20080;-80
2023/11/18 09:23:25;;;;;;;7.95;5.55;;;4.80;99.90;;;;;;5014001;28;20030;-79
2023/11/18 09:25:53;;;;;;;8.00;5.45;;;4.80;99.90;;;;;;5030803;28;20028;-80
2023/11/18 09:28:24;;;;;;;8.38;4.88;;;4.80;99.90;;;;;;5013809;28;20013;-79
2023/11/18 09:30:50;;;;;;;6.50;4.70;;;4.80;99.90;;;;;;5014198;28;20022;-80
2023/11/18 09:33:28;;;;;;;9.23;4.70;;;4.80;99.90;;;;;;5014212;28;20381;-79
2023/11/18 09:36:00;;;;;;;5.65;4.05;;;4.80;99.90;;;;;;5030068;28;20104;-79
2023/11/18 09:38:36;;;;;;;5.93;4.00;;;4.80;99.90;;;;;;5015356;28;20076;-80
2023/11/18 09:41:03;;;;;;;5.75;3.80;;;4.80;99.90;;;;;;5014517;28;20072;-81
2023/11/18 09:43:47;;;;;;;3.47;3.05;;;4.90;99.90;;;;;;5016786;28;20390;-80
2023/11/18 09:46:35;;;;;;;5.13;4.00;;;5.00;99.90;;;;;;5032825;28;20014;-79
2023/11/18 09:49:33;;;;;;;5.30;3.53;;;5.00;99.90;;;;;;5015984;28;20145;-80
2023/11/18 09:52:03;;;;;;;5.57;3.67;;;5.10;99.90;;;;;;5015720;28;20023;-79
2023/11/18 09:55:14;;;;;;;4.10;3.20;;;5.20;99.90;;;;;;5031057;28;20101;-79
2023/11/18 09:57:43;;;;;;;4.63;2.42;;;5.30;99.90;;;;;;5026422;28;20048;-80
2023/11/18 10:00:26;;;;;;;3.35;2.58;;;5.30;99.90;;;;;;5031733;28;20021;-80
2023/11/18 10:02:53;;;;;;;3.92;2.50;;;5.40;99.90;;;;;;5012837;28;20037;-80
2023/11/18 10:05:20;;;;;;;3.95;2.40;;;5.40;99.90;;;;;;5035101;28;20132;-82
2023/11/18 10:07:47;;;;;;;3.42;2.38;;;5.50;99.90;;;;;;5034669;28;20473;-80
2023/11/18 10:10:16;;;;;;;2.38;1.90;;;5.60;99.90;;;;;;5019676;28;20049;-81
2023/11/18 10:12:51;;;;;;;2.63;2.00;;;5.60;99.90;;;;;;5014881;28;20036;-82
2023/11/18 10:15:18;;;;;;;2.28;2.08;;;5.60;99.90;;;;;;5034105;28;21143;-81
2023/11/18 10:17:59;;;;;;;4.15;2.38;;;5.60;99.90;;;;;;5019639;28;20048;-79
2023/11/18 10:20:44;;;;;;;2.50;2.15;;;5.70;99.90;;;;;;5009085;28;20038;-79
2023/11/18 10:23:10;;;;;;;3.25;2.30;;;5.70;99.90;;;;;;5011567;28;20111;-81
2023/11/18 10:25:48;;;;;;;2.00;1.73;;;5.70;99.90;;;;;;5011820;28;20021;-80
2023/11/18 10:28:23;;;;;;;3.75;1.80;;;5.80;99.90;;;;;;5011797;28;20477;-79
2023/11/18 10:30:50;;;;;;;2.58;1.75;;;5.80;99.90;;;;;;5007337;28;20026;-81
2023/11/18 10:33:17;;;;;;;2.92;2.05;;;5.80;99.90;;;;;;5030649;28;20027;-80
2023/11/18 10:35:51;;;;;;;2.20;1.90;;;5.80;99.90;;;;;;5011019;28;20045;-80
2023/11/18 10:38:18;;;;;;;2.20;1.75;;;5.90;99.90;;;;;;5011131;28;20031;-78
2023/11/18 10:40:44;;;;;;;2.53;1.80;;;5.90;99.90;;;;;;5027934;28;20030;-78
2023/11/18 10:43:10;;;;;;;2.65;1.63;;;5.90;99.90;;;;;;5029843;28;20025;-80
2023/11/18 10:45:38;;;;;;;2.15;1.85;;;5.90;99.90;;;;;;5008257;28;20033;-79
2023/11/18 10:48:08;;;;;;;3.28;1.73;;;5.90;99.90;;;;;;5004724;28;20091;-79
2023/11/18 10:50:34;;;;;;;3.97;1.35;;;5.90;99.90;;;;;;5028995;28;20151;-78
2023/11/18 10:53:11;;;;;;;2.25;1.88;;;6.00;99.90;;;;;;5028812;28;20062;-80
2023/11/18 10:55:38;;;;;;;2.30;1.95;;;6.00;99.90;;;;;;5008605;28;20030;-79
2023/11/18 10:58:14;;;;;;;2.78;1.48;;;6.00;99.90;;;;;;5026529;28;20017;-79
2023/11/18 11:00:49;;;;;;;;;;;6.00;99.90;;;;;;5028109;28;20271;-79
2023/11/18 11:03:16;;;;;;;5.10;1.92;;;6.00;99.90;;;;;;5007023;28;19979;-79
2023/11/18 11:05:43;;;;;;;1.98;1.67;;;6.10;99.90;;;;;;5008267;28;20060;-79
2023/11/18 11:08:12;;;;;;;2.42;1.67;;;6.10;99.90;;;;;;5007705;28;20036;-78
2023/11/18 11:10:41;;;;;;;1.75;1.58;;;6.10;99.90;;;;;;5028833;28;20034;-78
2023/11/18 11:13:08;;;;;;;2.55;1.55;;;6.10;99.90;;;;;;5027217;28;20045;-80
2023/11/18 11:15:42;;;;;;;2.47;1.83;;;6.10;99.90;;;;;;5031531;28;20055;-79
2023/11/18 11:18:15;;;;;;;2.33;1.95;;;6.20;99.90;;;;;;5025739;28;20474;-78
2023/11/18 11:21:07;;;;;;;2.33;2.00;;;6.20;99.90;;;;;;5006993;28;20091;-78
2023/11/18 11:23:53;;;;;;;2.85;2.30;;;6.20;99.90;;;;;;5011267;28;20021;-78
2023/11/18 11:26:57;;;;;;;3.75;2.53;;;6.20;99.90;;;;;;5010973;28;20228;-79
2023/11/18 11:29:32;;;;;;;2.72;2.10;;;6.20;99.90;;;;;;5016117;28;20159;-80
2023/11/18 11:32:24;;;;;;;3.40;1.90;;;6.20;99.90;;;;;;5010958;28;20030;-80
2023/11/18 11:35:05;;;;;;;2.65;1.58;;;6.20;99.90;;;;;;5012565;28;20692;-80
2023/11/18 11:37:34;;;;;;;4.32;2.08;;;6.20;99.90;;;;;;5008523;28;20029;-78
2023/11/18 11:40:04;;;;;;;2.67;2.00;;;6.20;99.90;;;;;;5027888;28;20021;-80
2023/11/18 11:42:31;;;;;;;1.85;1.30;;;6.20;99.90;;;;;;5012796;28;20465;-79
2023/11/18 11:44:58;;;;;;;1.48;1.35;;;6.20;99.90;;;;;;5014542;28;20028;-78
2023/11/18 11:47:28;;;;;;;1.75;1.58;;;6.20;99.90;;;;;;5011444;28;20075;-78
2023/11/18 11:50:31;;;;;;;3.40;1.50;;;6.20;99.90;;;;;;5030411;28;20030;-78
2023/11/18 11:53:15;;;;;;;2.47;1.73;;;6.10;99.90;;;;;;5030408;28;20572;-79
2023/11/18 11:55:51;;;;;;;2.00;1.77;;;6.10;99.90;;;;;;5012917;28;20223;-81
2023/11/18 11:58:31;;;;;;;;;;;6.10;99.90;;;;;;5028808;28;20022;-79
2023/11/18 12:01:15;;;;;;;2.95;1.95;;;6.10;99.90;;;;;;5012228;28;19916;-80
2023/11/18 12:03:43;;;;;;;2.70;1.70;;;6.10;99.90;;;;;;5033283;28;20017;-79
2023/11/18 12:06:09;;;;;;;2.95;1.98;;;6.10;99.90;;;;;;5012587;28;20097;-80
2023/11/18 12:08:39;;;;;;;3.70;1.65;;;6.10;99.90;;;;;;5015150;28;20025;-79
2023/11/18 12:11:09;;;;;;;1.83;1.48;;;6.10;99.90;;;;;;5025892;28;20014;-79
2023/11/18 12:13:39;;;;;;;2.13;1.60;;;6.10;99.90;;;;;;5014598;28;20025;-79
2023/11/18 12:16:05;;;;;;;2.40;1.77;;;6.10;99.90;;;;;;5010861;28;20100;-78
2023/11/18 12:18:36;;;;;;;1.95;1.77;;;6.10;99.90;;;;;;5009976;28;20078;-79
2023/11/18 12:21:03;;;;;;;1.90;1.38;;;6.00;99.90;;;;;;5011539;28;20025;-80
2023/11/18 12:23:30;;;;;;;2.80;1.73;;;6.00;99.90;;;;;;5015749;28;20025;-78
2023/11/18 12:25:57;;;;;;;1.83;1.40;;;6.00;99.90;;;;;;5031233;28;20006;-78
2023/11/18 12:28:30;;;;;;;1.92;1.60;;;6.00;99.90;;;;;;5010209;28;20404;-81
2023/11/18 12:30:56;;;;;;;1.83;1.60;;;5.90;99.90;;;;;;5026795;28;20482;-79
2023/11/18 12:33:46;;;;;;;2.25;1.65;;;5.80;99.90;;;;;;5031093;28;20088;-78
2023/11/18 12:36:34;;;;;;;2.33;1.58;;;5.80;99.90;;;;;;5028718;28;20021;-78
2023/11/18 12:39:33;;;;;;;2.47;1.85;;;5.80;99.90;;;;;;5013233;28;20037;-80
2023/11/18 12:42:14;;;;;;;2.30;1.70;;;5.80;99.90;;;;;;5010555;28;20112;-79
2023/11/18 12:45:14;;;;;;;2.35;2.15;;;5.90;99.90;;;;;;5011669;28;20103;-78
2023/11/18 12:47:44;;;;;;;2.85;2.10;;;5.90;99.90;;;;;;5025931;28;20037;-78
2023/11/18 12:50:24;;;;;;;4.32;2.38;;;5.90;99.90;;;;;;5024938;28;20030;-78
2023/11/18 12:52:53;;;;;;;3.05;2.38;;;6.00;99.90;;;;;;5012258;28;20167;-80
2023/11/18 12:55:20;;;;;;;3.95;2.25;;;5.90;99.90;;;;;;5014939;28;20032;-81
2023/11/18 12:57:47;;;;;;;3.78;3.30;;;6.00;99.90;;;;;;5014455;28;20049;-80
2023/11/18 13:00:18;;;;;;;4.90;3.38;;;5.90;99.90;;;;;;5035429;28;20025;-80
2023/11/18 13:02:44;;;;;;;3.10;2.55;;;5.90;99.90;;;;;;5011489;28;20021;-84
2023/11/18 13:05:10;;;;;;;3.50;2.80;;;5.90;99.90;;;;;;5027394;28;20040;-82